Sea-land Charger — WDB9948 — position and weather

sailwx.info

Track history (hours):
 
Tides and Currents Weather Stations Pressure Air Temp Water Temp Dewpoint Dewpoint Depression Visibility Wind Speed Wind Dir Waves Ship Positions

Sea-land Charger

More information available from US FCC via Universal Licensing System.

Last reported at 2014-Jul-23 18:00 UTC. Time now 2014-Jul-24 16:59 UTC.
Position N 44°48' W 158°42'.

Type: Cargo ship. MMSI: 303279000.

Wind from 200 at 7 knots

Waves 1.0 meters (3 feet), 8 second period

Barometer 1031.0 mb
Air temperature 15.0 ° C
Visibility: greater than 0.3 NM
Dewpoint 14.1 ° C
Water temperature 15.0 ° C

Date/timePositionNaut miles runAvg speedWind from/ knotsBaromVisibWave heightAir tempDewpointWater temp
2014-Jul-23 18:00N 44°48' W 158°42'91219.0 200 / 71031.0 0.3 1.015.014.115.0
2014-Jul-21 18:00N 45°18' E 179°48'45919.1 260 / 141024.5 5.4 1.011.510.511.0
2014-Jul-20 18:00N 44°00' E 169°12'44418.5 300 / 141026.010.8 1.011.0 9.013.0
2014-Jul-19 18:00N 41°54' E 159°30'10918.2 120 / 151026.010.8 1.014.0 5.617.0
2014-Jul-19 12:00N 41°18' E 157°12'11919.8 120 / 151024.5 5.4 1.018.011.618.0
2014-Jul-19 06:00N 40°30' E 154°48'67718.8 120 / 151022.010.8 1.518.011.618.0
2014-Jul-17 18:00N 35°18' E 142°06'8819.9 130 / 51013.8 5.4 0.525.022.027.0
2014-Jul-17 13:33N 34°49' E 140°24'1918.9
2014-Jul-17 12:33N 34°49' E 140°01'1818.3
2014-Jul-17 11:33N 34°55' E 139°40'1717.2
2014-Jul-17 10:34N 35°11' E 139°46'1211.8
2014-Jul-17 09:34N 35°23' E 139°41'1 1.4
2014-Jul-17 08:31N 35°24' E 139°41'0 0.0
2014-Jul-17 07:31N 35°24' E 139°41'0 0.0
2014-Jul-17 06:31N 35°24' E 139°41'0 0.0
2014-Jul-17 05:31N 35°24' E 139°41'0 0.0
2014-Jul-17 04:33N 35°24' E 139°41'8 7.9
2014-Jul-17 03:34N 35°17' E 139°45'1110.6
2014-Jul-17 02:34N 35°07' E 139°46'1615.7
2014-Jul-17 01:33N 34°51' E 139°42'474 9.4
2014-Jul-14 23:25N 33°54' E 130°12'1112.5
2014-Jul-14 22:33N 33°44' E 130°15'9 8.7
2014-Jul-14 21:33N 33°39' E 130°24'0 0.2
2014-Jul-14 20:33N 33°39' E 130°24'0 0.0
2014-Jul-14 19:33N 33°39' E 130°24'0 0.0
2014-Jul-14 18:33N 33°39' E 130°24'0 0.0
2014-Jul-14 17:33N 33°39' E 130°24'0 0.0
2014-Jul-14 16:33N 33°39' E 130°24'0 0.0
2014-Jul-14 15:33N 33°39' E 130°24'0 0.0
2014-Jul-14 14:33N 33°39' E 130°24'0 0.0
2014-Jul-14 13:30N 33°39' E 130°24'0 0.0
2014-Jul-14 12:33N 33°39' E 130°24'0 0.1
2014-Jul-14 11:32N 33°39' E 130°24'7 7.3
2014-Jul-14 10:33N 33°40' E 130°15'1010.5
2014-Jul-14 09:33N 33°50' E 130°12'  
Track history (hours):
 
Tides and Currents Weather Stations Pressure Air Temp Water Temp Dewpoint Dewpoint Depression Visibility Wind Speed Wind Dir Waves Ship Positions

Sea-land Charger

More information available from US FCC via Universal Licensing System.

Last reported at 2014-Jul-23 18:00 UTC. Time now 2014-Jul-24 16:59 UTC.
Position N 44°48' W 158°42'.

Type: Cargo ship. MMSI: 303279000.

Wind from 200 at 7 knots

Waves 1.0 meters (3 feet), 8 second period

Barometer 1031.0 mb
Air temperature 15.0 ° C
Visibility: greater than 0.3 NM
Dewpoint 14.1 ° C
Water temperature 15.0 ° C

Date/timePositionNaut miles runAvg speedWind from/ knotsBaromVisibWave heightAir tempDewpointWater temp
2014-Jul-23 18:00N 44°48' W 158°42'91219.0 200 / 71031.0 0.3 1.015.014.115.0
2014-Jul-21 18:00N 45°18' E 179°48'45919.1 260 / 141024.5 5.4 1.011.510.511.0
2014-Jul-20 18:00N 44°00' E 169°12'44418.5 300 / 141026.010.8 1.011.0 9.013.0
2014-Jul-19 18:00N 41°54' E 159°30'10918.2 120 / 151026.010.8 1.014.0 5.617.0
2014-Jul-19 12:00N 41°18' E 157°12'11919.8 120 / 151024.5 5.4 1.018.011.618.0
2014-Jul-19 06:00N 40°30' E 154°48'67718.8 120 / 151022.010.8 1.518.011.618.0
2014-Jul-17 18:00N 35°18' E 142°06'8819.9 130 / 51013.8 5.4 0.525.022.027.0
2014-Jul-17 13:33N 34°49' E 140°24'1918.9
2014-Jul-17 12:33N 34°49' E 140°01'1818.3
2014-Jul-17 11:33N 34°55' E 139°40'1717.2
2014-Jul-17 10:34N 35°11' E 139°46'1211.8
2014-Jul-17 09:34N 35°23' E 139°41'1 1.4
2014-Jul-17 08:31N 35°24' E 139°41'0 0.0
2014-Jul-17 07:31N 35°24' E 139°41'0 0.0
2014-Jul-17 06:31N 35°24' E 139°41'0 0.0
2014-Jul-17 05:31N 35°24' E 139°41'0 0.0
2014-Jul-17 04:33N 35°24' E 139°41'8 7.9
2014-Jul-17 03:34N 35°17' E 139°45'1110.6
2014-Jul-17 02:34N 35°07' E 139°46'1615.7
2014-Jul-17 01:33N 34°51' E 139°42'474 9.4
2014-Jul-14 23:25N 33°54' E 130°12'1112.5
2014-Jul-14 22:33N 33°44' E 130°15'9 8.7
2014-Jul-14 21:33N 33°39' E 130°24'0 0.2
2014-Jul-14 20:33N 33°39' E 130°24'0 0.0
2014-Jul-14 19:33N 33°39' E 130°24'0 0.0
2014-Jul-14 18:33N 33°39' E 130°24'0 0.0
2014-Jul-14 17:33N 33°39' E 130°24'0 0.0
2014-Jul-14 16:33N 33°39' E 130°24'0 0.0
2014-Jul-14 15:33N 33°39' E 130°24'0 0.0
2014-Jul-14 14:33N 33°39' E 130°24'0 0.0
2014-Jul-14 13:30N 33°39' E 130°24'0 0.0
2014-Jul-14 12:33N 33°39' E 130°24'0 0.1
2014-Jul-14 11:32N 33°39' E 130°24'7 7.3
2014-Jul-14 10:33N 33°40' E 130°15'1010.5
2014-Jul-14 09:33N 33°50' E 130°12'  

Dump ship's entire track history